sensor_id;sensor_type;location;lat;lon;timestamp;pressure;altitude;pressure_sealevel;temperature;humidity
5777;BME280;2914;42.668;23.346;2022-11-15T00:02:02;95092.70;;;7.78;94.69
5777;BME280;2914;42.668;23.346;2022-11-15T00:04:32;95092.94;;;7.75;94.72
5777;BME280;2914;42.668;23.346;2022-11-15T00:07:01;95095.33;;;7.78;94.70
5777;BME280;2914;42.668;23.346;2022-11-15T00:09:30;95094.39;;;7.79;94.68
5777;BME280;2914;42.668;23.346;2022-11-15T00:12:00;95094.39;;;7.79;94.68
5777;BME280;2914;42.668;23.346;2022-11-15T00:14:29;95087.55;;;7.71;94.18
5777;BME280;2914;42.668;23.346;2022-11-15T00:16:58;95093.36;;;7.69;94.48
5777;BME280;2914;42.668;23.346;2022-11-15T00:19:27;95093.22;;;7.64;93.11
5777;BME280;2914;42.668;23.346;2022-11-15T00:21:56;95090.57;;;7.59;91.42
5777;BME280;2914;42.668;23.346;2022-11-15T00:24:25;95088.03;;;7.52;92.62
5777;BME280;2914;42.668;23.346;2022-11-15T00:26:55;95086.69;;;7.46;93.96
5777;BME280;2914;42.668;23.346;2022-11-15T00:29:24;95080.35;;;7.48;95.00
5777;BME280;2914;42.668;23.346;2022-11-15T00:31:53;95075.47;;;7.50;95.43
5777;BME280;2914;42.668;23.346;2022-11-15T00:34:22;95073.91;;;7.47;95.91
5777;BME280;2914;42.668;23.346;2022-11-15T00:36:54;95074.73;;;7.42;96.27
5777;BME280;2914;42.668;23.346;2022-11-15T00:39:23;95070.20;;;7.44;96.58
5777;BME280;2914;42.668;23.346;2022-11-15T00:41:52;95069.68;;;7.39;97.10
5777;BME280;2914;42.668;23.346;2022-11-15T00:44:21;95068.31;;;7.46;96.89
5777;BME280;2914;42.668;23.346;2022-11-15T00:49:30;95059.41;;;7.54;96.45
5777;BME280;2914;42.668;23.346;2022-11-15T00:51:59;95068.31;;;7.46;96.06
5777;BME280;2914;42.668;23.346;2022-11-15T00:54:29;95069.34;;;7.38;96.17
5777;BME280;2914;42.668;23.346;2022-11-15T00:56:58;95070.66;;;7.38;95.48
5777;BME280;2914;42.668;23.346;2022-11-15T00:59:27;95065.97;;;7.36;95.57
5777;BME280;2914;42.668;23.346;2022-11-15T01:01:56;95054.02;;;7.32;95.38
5777;BME280;2914;42.668;23.346;2022-11-15T01:04:25;95060.20;;;7.30;96.06
5777;BME280;2914;42.668;23.346;2022-11-15T01:06:54;95059.03;;;7.35;96.42
5777;BME280;2914;42.668;23.346;2022-11-15T01:09:24;95059.01;;;7.29;95.39
5777;BME280;2914;42.668;23.346;2022-11-15T01:11:53;95061.11;;;7.24;95.44
5777;BME280;2914;42.668;23.346;2022-11-15T01:14:24;95056.31;;;7.18;96.32
5777;BME280;2914;42.668;23.346;2022-11-15T01:16:53;95054.03;;;7.13;95.64
5777;BME280;2914;42.668;23.346;2022-11-15T01:19:23;95067.15;;;7.13;95.34
5777;BME280;2914;42.668;23.346;2022-11-15T01:21:53;95066.29;;;7.12;95.49
5777;BME280;2914;42.668;23.346;2022-11-15T01:24:22;95059.73;;;7.12;95.88
5777;BME280;2914;42.668;23.346;2022-11-15T01:29:14;95057.25;;;7.17;96.51
5777;BME280;2914;42.668;23.346;2022-11-15T01:31:44;95053.14;;;7.07;95.58
5777;BME280;2914;42.668;23.346;2022-11-15T01:34:13;95051.45;;;7.06;95.55
5777;BME280;2914;42.668;23.346;2022-11-15T01:36:43;95049.20;;;7.07;95.50
5777;BME280;2914;42.668;23.346;2022-11-15T01:39:12;95053.52;;;7.08;95.57
5777;BME280;2914;42.668;23.346;2022-11-15T01:41:41;95056.44;;;7.03;95.33
5777;BME280;2914;42.668;23.346;2022-11-15T01:44:42;95058.34;;;7.01;95.07
5777;BME280;2914;42.668;23.346;2022-11-15T01:47:13;95051.49;;;6.93;94.71
5777;BME280;2914;42.668;23.346;2022-11-15T01:49:47;95059.21;;;6.89;94.52
5777;BME280;2914;42.668;23.346;2022-11-15T01:52:19;95049.05;;;6.84;95.20
5777;BME280;2914;42.668;23.346;2022-11-15T01:54:50;95055.87;;;6.74;95.68
5777;BME280;2914;42.668;23.346;2022-11-15T01:57:20;95049.02;;;6.53;96.83
5777;BME280;2914;42.668;23.346;2022-11-15T01:59:49;95049.16;;;6.70;97.00
5777;BME280;2914;42.668;23.346;2022-11-15T02:04:59;95046.99;;;6.82;96.51
5777;BME280;2914;42.668;23.346;2022-11-15T02:07:29;95050.44;;;6.83;96.52
5777;BME280;2914;42.668;23.346;2022-11-15T02:10:02;95047.59;;;6.80;96.50
5777;BME280;2914;42.668;23.346;2022-11-15T02:12:32;95047.11;;;6.81;95.85
5777;BME280;2914;42.668;23.346;2022-11-15T02:15:02;95046.28;;;6.80;95.67
5777;BME280;2914;42.668;23.346;2022-11-15T02:20:48;95042.39;;;6.86;95.57
5777;BME280;2914;42.668;23.346;2022-11-15T02:33:05;95045.72;;;6.88;94.77
5777;BME280;2914;42.668;23.346;2022-11-15T02:35:37;95042.65;;;6.88;93.76
5777;BME280;2914;42.668;23.346;2022-11-15T02:38:10;95044.75;;;6.83;93.86
5777;BME280;2914;42.668;23.346;2022-11-15T02:40:42;95039.13;;;6.82;95.06
5777;BME280;2914;42.668;23.346;2022-11-15T02:43:14;95040.81;;;6.83;95.89
5777;BME280;2914;42.668;23.346;2022-11-15T02:46:03;95039.28;;;6.86;95.74
5777;BME280;2914;42.668;23.346;2022-11-15T02:48:35;95036.50;;;6.82;95.47
5777;BME280;2914;42.668;23.346;2022-11-15T02:51:05;95038.19;;;6.83;95.68
5777;BME280;2914;42.668;23.346;2022-11-15T02:53:34;95041.38;;;6.81;95.16
5777;BME280;2914;42.668;23.346;2022-11-15T02:56:04;95041.45;;;6.74;94.33
5777;BME280;2914;42.668;23.346;2022-11-15T03:01:45;95042.08;;;6.77;96.59
5777;BME280;2914;42.668;23.346;2022-11-15T03:04:20;95039.35;;;6.79;96.70
5777;BME280;2914;42.668;23.346;2022-11-15T03:06:52;95040.81;;;6.70;96.11
5777;BME280;2914;42.668;23.346;2022-11-15T03:09:27;95046.36;;;6.78;96.24
5777;BME280;2914;42.668;23.346;2022-11-15T03:11:58;95047.94;;;6.81;96.40
5777;BME280;2914;42.668;23.346;2022-11-15T03:14:29;95043.24;;;6.73;94.63
5777;BME280;2914;42.668;23.346;2022-11-15T03:17:02;95044.06;;;6.74;94.15
5777;BME280;2914;42.668;23.346;2022-11-15T03:19:35;95046.80;;;6.72;93.16
5777;BME280;2914;42.668;23.346;2022-11-15T03:22:07;95042.60;;;6.70;93.41
5777;BME280;2914;42.668;23.346;2022-11-15T03:24:39;95040.92;;;6.69;93.95
5777;BME280;2914;42.668;23.346;2022-11-15T03:27:11;95039.85;;;6.53;92.21
5777;BME280;2914;42.668;23.346;2022-11-15T03:29:43;95035.50;;;6.46;91.28
5777;BME280;2914;42.668;23.346;2022-11-15T03:32:16;95035.44;;;6.53;91.01
5777;BME280;2914;42.668;23.346;2022-11-15T03:34:50;95035.33;;;6.55;91.05
5777;BME280;2914;42.668;23.346;2022-11-15T03:37:22;95034.13;;;6.53;90.74
5777;BME280;2914;42.668;23.346;2022-11-15T03:39:54;95034.91;;;6.48;90.87
5777;BME280;2914;42.668;23.346;2022-11-15T03:42:27;95023.92;;;6.43;90.75
5777;BME280;2914;42.668;23.346;2022-11-15T03:44:58;95023.02;;;6.37;90.77
5777;BME280;2914;42.668;23.346;2022-11-15T03:47:31;95021.06;;;6.33;91.29
5777;BME280;2914;42.668;23.346;2022-11-15T03:50:04;95018.05;;;6.26;90.83
5777;BME280;2914;42.668;23.346;2022-11-15T03:55:15;95009.81;;;6.25;91.63
5777;BME280;2914;42.668;23.346;2022-11-15T03:57:45;95008.51;;;6.25;91.39
5777;BME280;2914;42.668;23.346;2022-11-15T04:02:55;95004.56;;;6.38;90.80
5777;BME280;2914;42.668;23.346;2022-11-15T04:08:04;95009.52;;;6.43;90.55
5777;BME280;2914;42.668;23.346;2022-11-15T04:10:33;95010.35;;;6.31;90.96
5777;BME280;2914;42.668;23.346;2022-11-15T04:13:03;95006.14;;;6.41;91.12
5777;BME280;2914;42.668;23.346;2022-11-15T04:15:32;95007.61;;;6.45;91.00
5777;BME280;2914;42.668;23.346;2022-11-15T04:18:01;95003.61;;;6.52;90.53
5777;BME280;2914;42.668;23.346;2022-11-15T04:20:32;95002.27;;;6.34;90.59
5777;BME280;2914;42.668;23.346;2022-11-15T04:23:19;94999.06;;;5.77;92.97
5777;BME280;2914;42.668;23.346;2022-11-15T04:26:08;94992.44;;;5.31;95.81
5777;BME280;2914;42.668;23.346;2022-11-15T04:28:38;94991.70;;;5.49;96.55
5777;BME280;2914;42.668;23.346;2022-11-15T04:31:09;94993.50;;;5.69;96.10
5777;BME280;2914;42.668;23.346;2022-11-15T04:33:38;94999.73;;;5.86;94.23
5777;BME280;2914;42.668;23.346;2022-11-15T04:38:46;94998.66;;;6.03;93.30
5777;BME280;2914;42.668;23.346;2022-11-15T04:41:16;95006.98;;;5.95;93.25
5777;BME280;2914;42.668;23.346;2022-11-15T04:43:45;95011.13;;;5.92;92.54
5777;BME280;2914;42.668;23.346;2022-11-15T04:46:15;94999.95;;;5.63;92.98
5777;BME280;2914;42.668;23.346;2022-11-15T04:48:45;94997.01;;;5.35;95.25
5777;BME280;2914;42.668;23.346;2022-11-15T04:51:14;94998.73;;;5.21;95.71
5777;BME280;2914;42.668;23.346;2022-11-15T04:53:44;94996.25;;;5.33;95.90
5777;BME280;2914;42.668;23.346;2022-11-15T04:56:15;94999.55;;;5.49;95.50
5777;BME280;2914;42.668;23.346;2022-11-15T04:58:44;95003.81;;;5.57;94.82
5777;BME280;2914;42.668;23.346;2022-11-15T05:01:14;94998.48;;;5.39;95.08
5777;BME280;2914;42.668;23.346;2022-11-15T05:03:44;94994.31;;;5.02;96.84
5777;BME280;2914;42.668;23.346;2022-11-15T05:06:31;94995.47;;;4.90;99.01
5777;BME280;2914;42.668;23.346;2022-11-15T05:09:14;94999.16;;;5.01;100.00
5777;BME280;2914;42.668;23.346;2022-11-15T05:11:45;94991.22;;;5.02;100.00
5777;BME280;2914;42.668;23.346;2022-11-15T05:14:15;95000.47;;;5.01;100.00
5777;BME280;2914;42.668;23.346;2022-11-15T05:16:48;95003.47;;;5.02;100.00
5777;BME280;2914;42.668;23.346;2022-11-15T05:19:17;95002.89;;;5.11;100.00
5777;BME280;2914;42.668;23.346;2022-11-15T05:21:46;95003.23;;;5.19;100.00
5777;BME280;2914;42.668;23.346;2022-11-15T05:24:16;94998.31;;;5.35;100.00
5777;BME280;2914;42.668;23.346;2022-11-15T05:26:47;94996.00;;;5.50;100.00
5777;BME280;2914;42.668;23.346;2022-11-15T05:29:16;95004.78;;;5.49;100.00
5777;BME280;2914;42.668;23.346;2022-11-15T05:31:45;94995.04;;;5.04;100.00
5777;BME280;2914;42.668;23.346;2022-11-15T05:34:14;94994.34;;;4.95;100.00
5777;BME280;2914;42.668;23.346;2022-11-15T05:36:45;94991.76;;;4.73;100.00
5777;BME280;2914;42.668;23.346;2022-11-15T05:39:15;94983.74;;;4.69;100.00
5777;BME280;2914;42.668;23.346;2022-11-15T05:41:46;94992.81;;;4.41;100.00
5777;BME280;2914;42.668;23.346;2022-11-15T05:44:18;94987.18;;;4.69;100.00
5777;BME280;2914;42.668;23.346;2022-11-15T05:46:49;94993.83;;;4.61;100.00
5777;BME280;2914;42.668;23.346;2022-11-15T05:49:23;94991.58;;;4.69;100.00
5777;BME280;2914;42.668;23.346;2022-11-15T05:51:54;94989.17;;;4.66;100.00
5777;BME280;2914;42.668;23.346;2022-11-15T05:54:24;94991.02;;;4.64;100.00
5777;BME280;2914;42.668;23.346;2022-11-15T05:56:54;94989.16;;;4.58;100.00
5777;BME280;2914;42.668;23.346;2022-11-15T05:59:23;94989.73;;;4.56;100.00
5777;BME280;2914;42.668;23.346;2022-11-15T06:04:32;94989.96;;;4.88;100.00
5777;BME280;2914;42.668;23.346;2022-11-15T06:07:02;94992.31;;;4.71;100.00
5777;BME280;2914;42.668;23.346;2022-11-15T06:09:31;94993.35;;;4.61;100.00
5777;BME280;2914;42.668;23.346;2022-11-15T06:14:38;94998.63;;;4.88;100.00
5777;BME280;2914;42.668;23.346;2022-11-15T06:19:45;95003.23;;;5.19;100.00
5777;BME280;2914;42.668;23.346;2022-11-15T06:22:14;95007.36;;;5.09;100.00
5777;BME280;2914;42.668;23.346;2022-11-15T06:27:31;95009.19;;;5.21;100.00
5777;BME280;2914;42.668;23.346;2022-11-15T06:30:00;95008.59;;;5.03;100.00
5777;BME280;2914;42.668;23.346;2022-11-15T06:32:30;95002.75;;;5.20;100.00
5777;BME280;2914;42.668;23.346;2022-11-15T06:35:00;95004.89;;;5.48;100.00
5777;BME280;2914;42.668;23.346;2022-11-15T06:37:29;95005.28;;;5.61;100.00
5777;BME280;2914;42.668;23.346;2022-11-15T06:39:58;94999.45;;;5.71;100.00
5777;BME280;2914;42.668;23.346;2022-11-15T06:42:27;95005.45;;;5.86;100.00
5777;BME280;2914;42.668;23.346;2022-11-15T06:44:56;94995.63;;;5.89;100.00
5777;BME280;2914;42.668;23.346;2022-11-15T06:47:27;95000.27;;;5.58;100.00
5777;BME280;2914;42.668;23.346;2022-11-15T06:49:56;94996.73;;;5.32;100.00
5777;BME280;2914;42.668;23.346;2022-11-15T06:52:26;94995.63;;;5.22;100.00
5777;BME280;2914;42.668;23.346;2022-11-15T06:54:56;94995.66;;;5.42;100.00
5777;BME280;2914;42.668;23.346;2022-11-15T06:57:25;95001.05;;;5.86;100.00
5777;BME280;2914;42.668;23.346;2022-11-15T06:59:54;94995.07;;;6.04;100.00
5777;BME280;2914;42.668;23.346;2022-11-15T07:02:23;94999.80;;;6.12;100.00
5777;BME280;2914;42.668;23.346;2022-11-15T07:04:52;95003.31;;;5.85;100.00
5777;BME280;2914;42.668;23.346;2022-11-15T07:07:21;94997.88;;;5.68;100.00
5777;BME280;2914;42.668;23.346;2022-11-15T07:09:53;94993.46;;;5.36;100.00
5777;BME280;2914;42.668;23.346;2022-11-15T07:12:23;94997.12;;;4.99;100.00
5777;BME280;2914;42.668;23.346;2022-11-15T07:14:52;94994.84;;;5.34;100.00
5777;BME280;2914;42.668;23.346;2022-11-15T07:17:21;94993.73;;;5.31;100.00
5777;BME280;2914;42.668;23.346;2022-11-15T07:19:50;94980.87;;;5.28;100.00
5777;BME280;2914;42.668;23.346;2022-11-15T07:22:20;94986.12;;;5.48;100.00
5777;BME280;2914;42.668;23.346;2022-11-15T07:24:49;94993.77;;;5.51;100.00
5777;BME280;2914;42.668;23.346;2022-11-15T07:27:18;94986.79;;;5.65;100.00
5777;BME280;2914;42.668;23.346;2022-11-15T07:29:47;94986.09;;;5.68;100.00
5777;BME280;2914;42.668;23.346;2022-11-15T07:32:16;94986.19;;;5.87;100.00
5777;BME280;2914;42.668;23.346;2022-11-15T07:34:45;94990.47;;;6.08;100.00
5777;BME280;2914;42.668;23.346;2022-11-15T07:37:14;94990.73;;;6.23;100.00
5777;BME280;2914;42.668;23.346;2022-11-15T07:39:44;94993.71;;;6.37;100.00
5777;BME280;2914;42.668;23.346;2022-11-15T07:42:13;94999.07;;;6.49;100.00
5777;BME280;2914;42.668;23.346;2022-11-15T07:45:00;94992.23;;;6.59;100.00
5777;BME280;2914;42.668;23.346;2022-11-15T07:47:31;94988.45;;;6.63;100.00
5777;BME280;2914;42.668;23.346;2022-11-15T07:50:00;94987.95;;;6.76;100.00
5777;BME280;2914;42.668;23.346;2022-11-15T07:52:29;94994.06;;;6.83;100.00
5777;BME280;2914;42.668;23.346;2022-11-15T07:54:58;94986.12;;;6.84;100.00
5777;BME280;2914;42.668;23.346;2022-11-15T07:57:27;94985.27;;;6.84;100.00
5777;BME280;2914;42.668;23.346;2022-11-15T07:59:56;94980.50;;;6.83;100.00
5777;BME280;2914;42.668;23.346;2022-11-15T08:02:25;94983.88;;;6.72;100.00
5777;BME280;2914;42.668;23.346;2022-11-15T08:04:54;94982.83;;;6.75;100.00
5777;BME280;2914;42.668;23.346;2022-11-15T08:07:24;94977.47;;;6.76;100.00
5777;BME280;2914;42.668;23.346;2022-11-15T08:09:53;94982.56;;;6.91;100.00
5777;BME280;2914;42.668;23.346;2022-11-15T08:12:22;94978.73;;;6.89;100.00
5777;BME280;2914;42.668;23.346;2022-11-15T08:14:52;94979.83;;;6.74;100.00
5777;BME280;2914;42.668;23.346;2022-11-15T08:17:21;94986.12;;;6.53;100.00
5777;BME280;2914;42.668;23.346;2022-11-15T08:19:50;94979.76;;;6.62;100.00
5777;BME280;2914;42.668;23.346;2022-11-15T08:22:20;94975.90;;;6.74;100.00
5777;BME280;2914;42.668;23.346;2022-11-15T08:24:50;94979.05;;;6.79;100.00
5777;BME280;2914;42.668;23.346;2022-11-15T08:27:19;94975.52;;;6.86;100.00
5777;BME280;2914;42.668;23.346;2022-11-15T08:29:49;94965.73;;;6.88;100.00
5777;BME280;2914;42.668;23.346;2022-11-15T08:32:18;94970.41;;;6.90;100.00
5777;BME280;2914;42.668;23.346;2022-11-15T08:34:47;94974.23;;;6.91;100.00
5777;BME280;2914;42.668;23.346;2022-11-15T08:37:16;94976.78;;;6.99;100.00
5777;BME280;2914;42.668;23.346;2022-11-15T08:39:45;94977.06;;;7.07;100.00
5777;BME280;2914;42.668;23.346;2022-11-15T08:42:14;94972.62;;;7.20;100.00
5777;BME280;2914;42.668;23.346;2022-11-15T08:44:43;94967.14;;;7.23;100.00
5777;BME280;2914;42.668;23.346;2022-11-15T08:47:13;94962.20;;;6.94;100.00
5777;BME280;2914;42.668;23.346;2022-11-15T08:49:42;94961.05;;;6.99;100.00
5777;BME280;2914;42.668;23.346;2022-11-15T08:52:11;94956.77;;;7.03;100.00
5777;BME280;2914;42.668;23.346;2022-11-15T08:54:41;94955.05;;;7.15;100.00
5777;BME280;2914;42.668;23.346;2022-11-15T08:57:10;94954.00;;;7.18;100.00
5777;BME280;2914;42.668;23.346;2022-11-15T08:59:40;94957.19;;;7.16;100.00
5777;BME280;2914;42.668;23.346;2022-11-15T09:02:14;94951.88;;;7.23;100.00
5777;BME280;2914;42.668;23.346;2022-11-15T09:04:44;94938.16;;;7.25;100.00
5777;BME280;2914;42.668;23.346;2022-11-15T09:07:14;94939.03;;;7.31;100.00
5777;BME280;2914;42.668;23.346;2022-11-15T09:09:43;94941.68;;;7.37;100.00
5777;BME280;2914;42.668;23.346;2022-11-15T09:12:12;94930.95;;;7.40;100.00
5777;BME280;2914;42.668;23.346;2022-11-15T09:14:41;94933.58;;;7.40;100.00
5777;BME280;2914;42.668;23.346;2022-11-15T09:17:10;94924.42;;;7.51;100.00
5777;BME280;2914;42.668;23.346;2022-11-15T09:19:39;94930.91;;;7.58;99.58
5777;BME280;2914;42.668;23.346;2022-11-15T09:22:09;94924.79;;;7.52;99.24
5777;BME280;2914;42.668;23.346;2022-11-15T09:24:38;94915.50;;;7.59;99.74
5777;BME280;2914;42.668;23.346;2022-11-15T09:27:07;94915.50;;;7.59;99.74
5777;BME280;2914;42.668;23.346;2022-11-15T09:29:37;94909.66;;;7.56;99.57
5777;BME280;2914;42.668;23.346;2022-11-15T09:32:06;94917.61;;;7.48;100.00
5777;BME280;2914;42.668;23.346;2022-11-15T09:34:35;94908.61;;;7.28;100.00
5777;BME280;2914;42.668;23.346;2022-11-15T09:37:04;94907.69;;;7.35;100.00
5777;BME280;2914;42.668;23.346;2022-11-15T09:39:33;94900.75;;;7.34;100.00
5777;BME280;2914;42.668;23.346;2022-11-15T09:42:18;94900.75;;;7.34;100.00
5777;BME280;2914;42.668;23.346;2022-11-15T09:45:02;94895.48;;;7.28;100.00
5777;BME280;2914;42.668;23.346;2022-11-15T09:50:39;94886.87;;;7.26;100.00
5777;BME280;2914;42.668;23.346;2022-11-15T09:53:13;94889.83;;;7.16;100.00
5777;BME280;2914;42.668;23.346;2022-11-15T09:58:33;94886.38;;;6.91;100.00
5777;BME280;2914;42.668;23.346;2022-11-15T10:03:46;94867.41;;;6.64;100.00
5777;BME280;2914;42.668;23.346;2022-11-15T10:06:19;94864.28;;;6.58;100.00
5777;BME280;2914;42.668;23.346;2022-11-15T10:08:52;94863.77;;;6.72;100.00
5777;BME280;2914;42.668;23.346;2022-11-15T10:11:24;94860.14;;;6.67;100.00
5777;BME280;2914;42.668;23.346;2022-11-15T10:13:57;94861.86;;;6.98;100.00
5777;BME280;2914;42.668;23.346;2022-11-15T10:16:42;94847.39;;;7.28;100.00
5777;BME280;2914;42.668;23.346;2022-11-15T10:19:15;94846.04;;;7.52;100.00
5777;BME280;2914;42.668;23.346;2022-11-15T10:21:51;94846.05;;;7.69;100.00
5777;BME280;2914;42.668;23.346;2022-11-15T10:24:23;94846.05;;;7.69;100.00
5777;BME280;2914;42.668;23.346;2022-11-15T10:26:56;94839.73;;;7.72;99.61
5777;BME280;2914;42.668;23.346;2022-11-15T10:29:26;94838.21;;;7.80;99.04
5777;BME280;2914;42.668;23.346;2022-11-15T10:31:55;94838.21;;;7.80;99.04
5777;BME280;2914;42.668;23.346;2022-11-15T10:34:25;94832.09;;;7.57;99.38
5777;BME280;2914;42.668;23.346;2022-11-15T10:36:59;94817.53;;;7.81;99.25
5777;BME280;2914;42.668;23.346;2022-11-15T10:39:30;94819.28;;;7.36;100.00
5777;BME280;2914;42.668;23.346;2022-11-15T10:42:15;94819.28;;;7.36;100.00
5777;BME280;2914;42.668;23.346;2022-11-15T10:44:45;94808.22;;;7.66;100.00
5777;BME280;2914;42.668;23.346;2022-11-15T10:50:29;94797.81;;;8.21;97.39
5777;BME280;2914;42.668;23.346;2022-11-15T10:52:59;94797.81;;;8.21;97.39
5777;BME280;2914;42.668;23.346;2022-11-15T10:55:31;94795.00;;;7.90;98.02
5777;BME280;2914;42.668;23.346;2022-11-15T10:58:05;94790.21;;;7.73;99.45
5777;BME280;2914;42.668;23.346;2022-11-15T11:00:36;94791.64;;;7.88;99.41
5777;BME280;2914;42.668;23.346;2022-11-15T11:06:10;94776.89;;;8.31;98.23
5777;BME280;2914;42.668;23.346;2022-11-15T11:08:40;94768.69;;;8.13;98.34
5777;BME280;2914;42.668;23.346;2022-11-15T11:11:11;94769.62;;;8.29;97.27
5777;BME280;2914;42.668;23.346;2022-11-15T11:13:40;94769.62;;;8.29;97.27
5777;BME280;2914;42.668;23.346;2022-11-15T11:16:35;94762.84;;;8.21;97.85
5777;BME280;2914;42.668;23.346;2022-11-15T11:19:11;94757.94;;;8.10;98.18
5777;BME280;2914;42.668;23.346;2022-11-15T11:21:44;94758.03;;;8.31;98.13
5777;BME280;2914;42.668;23.346;2022-11-15T11:24:18;94756.91;;;7.90;99.14
5777;BME280;2914;42.668;23.346;2022-11-15T11:26:54;94741.88;;;7.70;100.00
5777;BME280;2914;42.668;23.346;2022-11-15T11:29:28;94738.75;;;7.98;100.00
5777;BME280;2914;42.668;23.346;2022-11-15T11:32:01;94738.75;;;7.98;100.00
5777;BME280;2914;42.668;23.346;2022-11-15T11:34:53;94731.93;;;8.02;100.00
5777;BME280;2914;42.668;23.346;2022-11-15T11:37:17;94730.00;;;8.15;99.91
5777;BME280;2914;42.668;23.346;2022-11-15T11:39:50;94717.55;;;8.28;99.43
5777;BME280;2914;42.668;23.346;2022-11-15T11:42:24;94708.67;;;8.41;98.87
5777;BME280;2914;42.668;23.346;2022-11-15T11:44:55;94709.05;;;8.30;98.71
5777;BME280;2914;42.668;23.346;2022-11-15T11:47:28;94709.05;;;8.30;98.71
5777;BME280;2914;42.668;23.346;2022-11-15T11:49:59;94698.38;;;8.55;97.88
5777;BME280;2914;42.668;23.346;2022-11-15T11:52:33;94698.38;;;8.55;97.88
5777;BME280;2914;42.668;23.346;2022-11-15T11:55:05;94695.69;;;8.66;97.58
5777;BME280;2914;42.668;23.346;2022-11-15T11:57:40;94683.08;;;8.43;97.95
5777;BME280;2914;42.668;23.346;2022-11-15T12:00:18;94683.08;;;8.43;97.95
5777;BME280;2914;42.668;23.346;2022-11-15T12:02:53;94671.55;;;8.23;99.04
5777;BME280;2914;42.668;23.346;2022-11-15T12:08:04;94675.06;;;8.50;98.81
5777;BME280;2914;42.668;23.346;2022-11-15T12:10:35;94672.05;;;8.60;98.31
5777;BME280;2914;42.668;23.346;2022-11-15T12:13:09;94659.92;;;8.48;98.63
5777;BME280;2914;42.668;23.346;2022-11-15T12:15:41;94663.23;;;8.50;98.69
5777;BME280;2914;42.668;23.346;2022-11-15T12:18:12;94655.97;;;8.69;97.81
5777;BME280;2914;42.668;23.346;2022-11-15T12:20:50;94655.97;;;8.69;97.81
5777;BME280;2914;42.668;23.346;2022-11-15T12:23:17;94651.51;;;8.54;98.06
5777;BME280;2914;42.668;23.346;2022-11-15T12:25:49;94648.19;;;8.52;99.35
5777;BME280;2914;42.668;23.346;2022-11-15T12:28:31;94648.19;;;8.52;99.35
5777;BME280;2914;42.668;23.346;2022-11-15T12:30:53;94642.52;;;8.30;99.35
5777;BME280;2914;42.668;23.346;2022-11-15T12:33:34;94631.66;;;8.61;98.89
5777;BME280;2914;42.668;23.346;2022-11-15T12:36:08;94631.66;;;8.61;98.89
5777;BME280;2914;42.668;23.346;2022-11-15T12:38:56;94631.59;;;8.40;99.49
5777;BME280;2914;42.668;23.346;2022-11-15T12:41:26;94627.05;;;8.48;99.15
5777;BME280;2914;42.668;23.346;2022-11-15T12:43:56;94627.05;;;8.48;99.15
5777;BME280;2914;42.668;23.346;2022-11-15T12:47:01;94622.03;;;8.51;99.11
5777;BME280;2914;42.668;23.346;2022-11-15T12:49:46;94622.03;;;8.51;99.11
5777;BME280;2914;42.668;23.346;2022-11-15T12:52:16;94615.48;;;8.45;99.79
5777;BME280;2914;42.668;23.346;2022-11-15T12:54:54;94607.61;;;8.33;99.89
5777;BME280;2914;42.668;23.346;2022-11-15T12:57:34;94612.36;;;8.66;99.52
5777;BME280;2914;42.668;23.346;2022-11-15T13:03:23;94604.33;;;8.74;99.00
5777;BME280;2914;42.668;23.346;2022-11-15T13:05:57;94604.33;;;8.74;99.00
5777;BME280;2914;42.668;23.346;2022-11-15T13:08:45;94605.28;;;8.88;98.12
5777;BME280;2914;42.668;23.346;2022-11-15T13:11:43;94602.88;;;8.91;97.76
5777;BME280;2914;42.668;23.346;2022-11-15T13:14:43;94595.17;;;8.99;97.42
5777;BME280;2914;42.668;23.346;2022-11-15T13:20:29;94590.78;;;9.25;96.11
5777;BME280;2914;42.668;23.346;2022-11-15T13:23:07;94587.08;;;9.22;96.09
5777;BME280;2914;42.668;23.346;2022-11-15T13:26:06;94584.19;;;9.09;96.28
5777;BME280;2914;42.668;23.346;2022-11-15T13:28:41;94581.09;;;9.10;96.55
5777;BME280;2914;42.668;23.346;2022-11-15T13:31:25;94580.55;;;9.31;95.63
5777;BME280;2914;42.668;23.346;2022-11-15T13:33:57;94580.55;;;9.31;95.63
5777;BME280;2914;42.668;23.346;2022-11-15T13:36:29;94574.95;;;9.40;95.29
5777;BME280;2914;42.668;23.346;2022-11-15T13:39:03;94574.95;;;9.40;95.29
5777;BME280;2914;42.668;23.346;2022-11-15T13:41:34;94571.59;;;9.44;95.29
5777;BME280;2914;42.668;23.346;2022-11-15T13:44:17;94579.13;;;9.43;95.20
5777;BME280;2914;42.668;23.346;2022-11-15T13:46:47;94578.11;;;9.49;94.50
5777;BME280;2914;42.668;23.346;2022-11-15T13:49:16;94578.11;;;9.49;94.50
5777;BME280;2914;42.668;23.346;2022-11-15T13:51:47;94569.67;;;9.65;93.83
5777;BME280;2914;42.668;23.346;2022-11-15T13:54:23;94576.89;;;9.63;93.85
5777;BME280;2914;42.668;23.346;2022-11-15T13:56:54;94568.92;;;9.69;93.41
5777;BME280;2914;42.668;23.346;2022-11-15T13:59:26;94554.44;;;9.69;93.41
5777;BME280;2914;42.668;23.346;2022-11-15T14:01:58;94563.80;;;9.77;93.41
5777;BME280;2914;42.668;23.346;2022-11-15T14:04:29;94566.02;;;9.82;93.10
5777;BME280;2914;42.668;23.346;2022-11-15T14:07:02;94562.56;;;9.81;92.98
5777;BME280;2914;42.668;23.346;2022-11-15T14:09:36;94561.92;;;9.83;92.75
5777;BME280;2914;42.668;23.346;2022-11-15T14:12:25;94554.09;;;9.88;92.37
5777;BME280;2914;42.668;23.346;2022-11-15T14:14:55;94554.09;;;9.88;92.37
5777;BME280;2914;42.668;23.346;2022-11-15T14:17:36;94557.79;;;9.81;92.57
5777;BME280;2914;42.668;23.346;2022-11-15T14:20:26;94557.51;;;9.84;92.36
5777;BME280;2914;42.668;23.346;2022-11-15T14:22:59;94554.23;;;9.76;92.72
5777;BME280;2914;42.668;23.346;2022-11-15T14:25:29;94554.23;;;9.76;92.72
5777;BME280;2914;42.668;23.346;2022-11-15T14:28:30;94552.09;;;9.76;92.98
5777;BME280;2914;42.668;23.346;2022-11-15T14:31:01;94552.09;;;9.76;92.98
5777;BME280;2914;42.668;23.346;2022-11-15T14:33:34;94553.19;;;9.63;93.28
5777;BME280;2914;42.668;23.346;2022-11-15T14:36:10;94550.69;;;9.62;93.67
5777;BME280;2914;42.668;23.346;2022-11-15T14:38:36;94557.81;;;9.65;93.91
5777;BME280;2914;42.668;23.346;2022-11-15T14:41:08;94557.81;;;9.65;93.91
5777;BME280;2914;42.668;23.346;2022-11-15T14:43:36;94551.23;;;9.65;93.77
5777;BME280;2914;42.668;23.346;2022-11-15T14:46:06;94554.93;;;9.68;93.55
5777;BME280;2914;42.668;23.346;2022-11-15T14:48:35;94555.46;;;9.62;93.92
5777;BME280;2914;42.668;23.346;2022-11-15T14:51:10;94557.27;;;9.62;93.83
5777;BME280;2914;42.668;23.346;2022-11-15T14:53:40;94559.98;;;9.66;93.58